sensor_id;sensor_type;location;lat;lon;timestamp;P1;durP1;ratioP1;P2;durP2;ratioP2
12719;SDS011;6424;48.520;11.228;2023-09-18T00:02:32;8.33;;;7.60;;
12719;SDS011;6424;48.520;11.228;2023-09-18T00:05:17;8.20;;;7.40;;
12719;SDS011;6424;48.520;11.228;2023-09-18T00:08:01;8.13;;;7.43;;
12719;SDS011;6424;48.520;11.228;2023-09-18T00:10:49;9.10;;;8.30;;
12719;SDS011;6424;48.520;11.228;2023-09-18T00:13:37;7.93;;;7.23;;
12719;SDS011;6424;48.520;11.228;2023-09-18T00:16:22;8.43;;;7.60;;
12719;SDS011;6424;48.520;11.228;2023-09-18T00:19:06;10.67;;;8.57;;
12719;SDS011;6424;48.520;11.228;2023-09-18T00:21:51;9.23;;;8.33;;
12719;SDS011;6424;48.520;11.228;2023-09-18T00:24:36;9.20;;;8.33;;
12719;SDS011;6424;48.520;11.228;2023-09-18T00:27:21;8.67;;;7.90;;
12719;SDS011;6424;48.520;11.228;2023-09-18T00:30:05;8.37;;;7.67;;
12719;SDS011;6424;48.520;11.228;2023-09-18T00:32:51;8.80;;;8.00;;
12719;SDS011;6424;48.520;11.228;2023-09-18T00:35:35;9.70;;;8.73;;
12719;SDS011;6424;48.520;11.228;2023-09-18T00:38:19;8.93;;;8.13;;
12719;SDS011;6424;48.520;11.228;2023-09-18T00:41:04;9.80;;;8.90;;
12719;SDS011;6424;48.520;11.228;2023-09-18T00:43:49;9.93;;;9.00;;
12719;SDS011;6424;48.520;11.228;2023-09-18T00:46:33;10.57;;;9.57;;
12719;SDS011;6424;48.520;11.228;2023-09-18T00:49:18;8.60;;;7.90;;
12719;SDS011;6424;48.520;11.228;2023-09-18T00:52:03;8.73;;;7.93;;
12719;SDS011;6424;48.520;11.228;2023-09-18T00:54:49;9.53;;;8.73;;
12719;SDS011;6424;48.520;11.228;2023-09-18T00:57:34;9.67;;;8.43;;
12719;SDS011;6424;48.520;11.228;2023-09-18T01:00:19;9.20;;;8.37;;
12719;SDS011;6424;48.520;11.228;2023-09-18T01:03:03;8.93;;;7.80;;
12719;SDS011;6424;48.520;11.228;2023-09-18T01:05:48;7.57;;;6.87;;
12719;SDS011;6424;48.520;11.228;2023-09-18T01:08:33;7.70;;;6.90;;
12719;SDS011;6424;48.520;11.228;2023-09-18T01:11:19;8.03;;;7.37;;
12719;SDS011;6424;48.520;11.228;2023-09-18T01:17:00;8.43;;;7.63;;
12719;SDS011;6424;48.520;11.228;2023-09-18T01:19:48;9.07;;;8.00;;
12719;SDS011;6424;48.520;11.228;2023-09-18T01:22:32;9.00;;;7.93;;
12719;SDS011;6424;48.520;11.228;2023-09-18T01:25:16;7.53;;;6.80;;
12719;SDS011;6424;48.520;11.228;2023-09-18T01:28:00;8.77;;;7.53;;
12719;SDS011;6424;48.520;11.228;2023-09-18T01:30:44;8.73;;;7.87;;
12719;SDS011;6424;48.520;11.228;2023-09-18T01:33:29;8.53;;;7.80;;
12719;SDS011;6424;48.520;11.228;2023-09-18T01:36:14;8.37;;;7.57;;
12719;SDS011;6424;48.520;11.228;2023-09-18T01:39:00;8.27;;;7.50;;
12719;SDS011;6424;48.520;11.228;2023-09-18T01:41:44;7.30;;;6.70;;
12719;SDS011;6424;48.520;11.228;2023-09-18T01:44:29;8.63;;;7.70;;
12719;SDS011;6424;48.520;11.228;2023-09-18T01:47:14;7.40;;;6.70;;
12719;SDS011;6424;48.520;11.228;2023-09-18T01:50:04;8.40;;;7.60;;
12719;SDS011;6424;48.520;11.228;2023-09-18T01:52:51;8.67;;;7.20;;
12719;SDS011;6424;48.520;11.228;2023-09-18T01:55:36;8.20;;;7.40;;
12719;SDS011;6424;48.520;11.228;2023-09-18T01:58:20;7.80;;;7.10;;
12719;SDS011;6424;48.520;11.228;2023-09-18T02:01:05;8.60;;;7.53;;
12719;SDS011;6424;48.520;11.228;2023-09-18T02:03:49;7.40;;;6.77;;
12719;SDS011;6424;48.520;11.228;2023-09-18T02:06:33;8.17;;;7.37;;
12719;SDS011;6424;48.520;11.228;2023-09-18T02:09:18;8.20;;;7.37;;
12719;SDS011;6424;48.520;11.228;2023-09-18T02:12:02;7.63;;;6.93;;
12719;SDS011;6424;48.520;11.228;2023-09-18T02:14:46;7.47;;;6.73;;
12719;SDS011;6424;48.520;11.228;2023-09-18T02:17:30;8.37;;;7.53;;
12719;SDS011;6424;48.520;11.228;2023-09-18T02:20:14;7.53;;;6.83;;
12719;SDS011;6424;48.520;11.228;2023-09-18T02:23:02;7.10;;;6.30;;
12719;SDS011;6424;48.520;11.228;2023-09-18T02:25:46;8.20;;;7.40;;
12719;SDS011;6424;48.520;11.228;2023-09-18T02:28:38;6.87;;;6.27;;
12719;SDS011;6424;48.520;11.228;2023-09-18T02:31:22;8.00;;;7.17;;
12719;SDS011;6424;48.520;11.228;2023-09-18T02:34:06;8.03;;;7.33;;
12719;SDS011;6424;48.520;11.228;2023-09-18T02:36:53;8.03;;;7.33;;
12719;SDS011;6424;48.520;11.228;2023-09-18T02:39:37;8.90;;;8.10;;
12719;SDS011;6424;48.520;11.228;2023-09-18T02:42:21;10.70;;;8.97;;
12719;SDS011;6424;48.520;11.228;2023-09-18T02:45:06;8.73;;;7.83;;
12719;SDS011;6424;48.520;11.228;2023-09-18T02:47:51;8.00;;;7.30;;
12719;SDS011;6424;48.520;11.228;2023-09-18T02:50:36;8.53;;;7.73;;
12719;SDS011;6424;48.520;11.228;2023-09-18T02:53:22;8.67;;;7.87;;
12719;SDS011;6424;48.520;11.228;2023-09-18T02:56:07;8.40;;;7.70;;
12719;SDS011;6424;48.520;11.228;2023-09-18T02:58:51;9.37;;;8.43;;
12719;SDS011;6424;48.520;11.228;2023-09-18T03:01:36;8.90;;;8.10;;
12719;SDS011;6424;48.520;11.228;2023-09-18T03:04:21;9.80;;;8.90;;
12719;SDS011;6424;48.520;11.228;2023-09-18T03:07:05;9.93;;;9.03;;
12719;SDS011;6424;48.520;11.228;2023-09-18T03:09:49;8.47;;;7.70;;
12719;SDS011;6424;48.520;11.228;2023-09-18T03:12:33;8.07;;;7.33;;
12719;SDS011;6424;48.520;11.228;2023-09-18T03:15:18;7.90;;;7.20;;
12719;SDS011;6424;48.520;11.228;2023-09-18T03:18:03;8.57;;;7.53;;
12719;SDS011;6424;48.520;11.228;2023-09-18T03:20:48;8.47;;;7.73;;
12719;SDS011;6424;48.520;11.228;2023-09-18T03:23:33;9.43;;;8.60;;
12719;SDS011;6424;48.520;11.228;2023-09-18T03:26:17;9.80;;;8.90;;
12719;SDS011;6424;48.520;11.228;2023-09-18T03:29:01;9.50;;;8.60;;
12719;SDS011;6424;48.520;11.228;2023-09-18T03:31:46;8.60;;;7.87;;
12719;SDS011;6424;48.520;11.228;2023-09-18T03:34:30;8.97;;;8.07;;
12719;SDS011;6424;48.520;11.228;2023-09-18T03:37:15;8.43;;;7.63;;
12719;SDS011;6424;48.520;11.228;2023-09-18T03:39:59;9.20;;;8.30;;
12719;SDS011;6424;48.520;11.228;2023-09-18T03:42:44;10.93;;;8.70;;
12719;SDS011;6424;48.520;11.228;2023-09-18T03:45:29;9.07;;;7.67;;
12719;SDS011;6424;48.520;11.228;2023-09-18T03:48:13;9.37;;;8.37;;
12719;SDS011;6424;48.520;11.228;2023-09-18T03:50:57;8.10;;;7.40;;
12719;SDS011;6424;48.520;11.228;2023-09-18T03:53:42;8.33;;;7.53;;
12719;SDS011;6424;48.520;11.228;2023-09-18T03:56:26;8.43;;;7.60;;
12719;SDS011;6424;48.520;11.228;2023-09-18T03:59:10;7.97;;;7.17;;
12719;SDS011;6424;48.520;11.228;2023-09-18T04:01:54;7.70;;;7.00;;
12719;SDS011;6424;48.520;11.228;2023-09-18T04:04:38;7.53;;;6.90;;
12719;SDS011;6424;48.520;11.228;2023-09-18T04:07:22;8.00;;;7.13;;
12719;SDS011;6424;48.520;11.228;2023-09-18T04:10:07;7.23;;;6.50;;
12719;SDS011;6424;48.520;11.228;2023-09-18T04:12:52;7.93;;;7.20;;
12719;SDS011;6424;48.520;11.228;2023-09-18T04:15:37;7.33;;;6.67;;
12719;SDS011;6424;48.520;11.228;2023-09-18T04:18:22;6.97;;;6.27;;
12719;SDS011;6424;48.520;11.228;2023-09-18T04:21:06;7.93;;;7.23;;
12719;SDS011;6424;48.520;11.228;2023-09-18T04:23:50;7.97;;;7.27;;
12719;SDS011;6424;48.520;11.228;2023-09-18T04:26:41;8.00;;;6.77;;
12719;SDS011;6424;48.520;11.228;2023-09-18T04:29:25;8.20;;;7.40;;
12719;SDS011;6424;48.520;11.228;2023-09-18T04:32:09;8.63;;;7.60;;
12719;SDS011;6424;48.520;11.228;2023-09-18T04:34:54;8.33;;;7.17;;
12719;SDS011;6424;48.520;11.228;2023-09-18T04:37:39;8.90;;;8.10;;
12719;SDS011;6424;48.520;11.228;2023-09-18T04:40:23;8.63;;;7.73;;
12719;SDS011;6424;48.520;11.228;2023-09-18T04:43:08;8.27;;;7.47;;
12719;SDS011;6424;48.520;11.228;2023-09-18T04:45:52;8.60;;;7.70;;
12719;SDS011;6424;48.520;11.228;2023-09-18T04:48:36;9.03;;;7.23;;
12719;SDS011;6424;48.520;11.228;2023-09-18T04:51:20;10.60;;;7.73;;
12719;SDS011;6424;48.520;11.228;2023-09-18T04:54:05;9.60;;;8.60;;
12719;SDS011;6424;48.520;11.228;2023-09-18T04:56:50;8.97;;;8.00;;
12719;SDS011;6424;48.520;11.228;2023-09-18T04:59:34;8.57;;;7.67;;
12719;SDS011;6424;48.520;11.228;2023-09-18T05:02:18;10.83;;;7.90;;
12719;SDS011;6424;48.520;11.228;2023-09-18T05:05:03;12.63;;;8.20;;
12719;SDS011;6424;48.520;11.228;2023-09-18T05:07:48;12.93;;;7.40;;
12719;SDS011;6424;48.520;11.228;2023-09-18T05:10:32;10.50;;;7.50;;
12719;SDS011;6424;48.520;11.228;2023-09-18T05:13:22;9.97;;;7.00;;
12719;SDS011;6424;48.520;11.228;2023-09-18T05:16:07;12.47;;;8.10;;
12719;SDS011;6424;48.520;11.228;2023-09-18T05:18:51;10.83;;;8.30;;
12719;SDS011;6424;48.520;11.228;2023-09-18T05:21:35;18.57;;;8.10;;
12719;SDS011;6424;48.520;11.228;2023-09-18T05:24:19;10.30;;;8.17;;
12719;SDS011;6424;48.520;11.228;2023-09-18T05:27:10;8.87;;;7.97;;
12719;SDS011;6424;48.520;11.228;2023-09-18T05:29:56;8.87;;;7.63;;
12719;SDS011;6424;48.520;11.228;2023-09-18T05:32:41;8.13;;;7.07;;
12719;SDS011;6424;48.520;11.228;2023-09-18T05:35:26;7.13;;;6.40;;
12719;SDS011;6424;48.520;11.228;2023-09-18T05:38:11;7.43;;;6.73;;
12719;SDS011;6424;48.520;11.228;2023-09-18T05:41:01;6.80;;;6.20;;
12719;SDS011;6424;48.520;11.228;2023-09-18T05:43:45;7.40;;;6.70;;
12719;SDS011;6424;48.520;11.228;2023-09-18T05:46:30;7.13;;;6.53;;
12719;SDS011;6424;48.520;11.228;2023-09-18T05:49:14;8.53;;;5.90;;
12719;SDS011;6424;48.520;11.228;2023-09-18T05:51:59;6.60;;;6.00;;
12719;SDS011;6424;48.520;11.228;2023-09-18T05:54:43;9.20;;;8.17;;
12719;SDS011;6424;48.520;11.228;2023-09-18T05:57:27;9.80;;;8.80;;
12719;SDS011;6424;48.520;11.228;2023-09-18T06:00:11;10.73;;;8.87;;
12719;SDS011;6424;48.520;11.228;2023-09-18T06:03:00;9.83;;;8.83;;
12719;SDS011;6424;48.520;11.228;2023-09-18T06:05:44;11.17;;;9.93;;
12719;SDS011;6424;48.520;11.228;2023-09-18T06:08:28;11.00;;;9.80;;
12719;SDS011;6424;48.520;11.228;2023-09-18T06:11:14;10.47;;;9.33;;
12719;SDS011;6424;48.520;11.228;2023-09-18T06:13:59;10.07;;;9.07;;
12719;SDS011;6424;48.520;11.228;2023-09-18T06:16:43;10.43;;;9.40;;
12719;SDS011;6424;48.520;11.228;2023-09-18T06:19:27;11.00;;;10.07;;
12719;SDS011;6424;48.520;11.228;2023-09-18T06:22:12;9.20;;;8.30;;
12719;SDS011;6424;48.520;11.228;2023-09-18T06:24:56;8.67;;;7.97;;
12719;SDS011;6424;48.520;11.228;2023-09-18T06:27:41;9.23;;;7.87;;
12719;SDS011;6424;48.520;11.228;2023-09-18T06:30:26;8.57;;;7.77;;
12719;SDS011;6424;48.520;11.228;2023-09-18T06:33:10;8.80;;;8.00;;
12719;SDS011;6424;48.520;11.228;2023-09-18T06:35:56;8.00;;;7.30;;
12719;SDS011;6424;48.520;11.228;2023-09-18T06:38:40;9.27;;;8.37;;
12719;SDS011;6424;48.520;11.228;2023-09-18T06:41:24;8.53;;;7.73;;
12719;SDS011;6424;48.520;11.228;2023-09-18T06:44:08;7.80;;;7.10;;
12719;SDS011;6424;48.520;11.228;2023-09-18T06:46:53;7.93;;;7.30;;
12719;SDS011;6424;48.520;11.228;2023-09-18T06:49:37;9.13;;;8.30;;
12719;SDS011;6424;48.520;11.228;2023-09-18T06:52:21;10.33;;;8.47;;
12719;SDS011;6424;48.520;11.228;2023-09-18T06:55:05;8.53;;;7.50;;
12719;SDS011;6424;48.520;11.228;2023-09-18T06:57:50;9.53;;;8.73;;
12719;SDS011;6424;48.520;11.228;2023-09-18T07:00:36;9.53;;;8.63;;
12719;SDS011;6424;48.520;11.228;2023-09-18T07:03:20;8.90;;;8.00;;
12719;SDS011;6424;48.520;11.228;2023-09-18T07:06:05;8.73;;;7.83;;
12719;SDS011;6424;48.520;11.228;2023-09-18T07:08:49;9.87;;;9.07;;
12719;SDS011;6424;48.520;11.228;2023-09-18T07:11:34;9.47;;;8.57;;
12719;SDS011;6424;48.520;11.228;2023-09-18T07:14:18;10.20;;;9.33;;
12719;SDS011;6424;48.520;11.228;2023-09-18T07:17:03;10.83;;;9.73;;
12719;SDS011;6424;48.520;11.228;2023-09-18T07:19:48;9.93;;;9.13;;
12719;SDS011;6424;48.520;11.228;2023-09-18T07:22:32;10.80;;;9.20;;
12719;SDS011;6424;48.520;11.228;2023-09-18T07:25:16;10.23;;;9.20;;
12719;SDS011;6424;48.520;11.228;2023-09-18T07:28:01;9.43;;;8.53;;
12719;SDS011;6424;48.520;11.228;2023-09-18T07:30:46;8.00;;;7.30;;
12719;SDS011;6424;48.520;11.228;2023-09-18T07:33:30;7.93;;;7.13;;
12719;SDS011;6424;48.520;11.228;2023-09-18T07:36:15;8.70;;;7.90;;
12719;SDS011;6424;48.520;11.228;2023-09-18T07:38:59;10.07;;;8.33;;
12719;SDS011;6424;48.520;11.228;2023-09-18T07:41:44;8.93;;;8.03;;
12719;SDS011;6424;48.520;11.228;2023-09-18T07:44:28;8.07;;;7.23;;
12719;SDS011;6424;48.520;11.228;2023-09-18T07:47:13;7.90;;;6.93;;
12719;SDS011;6424;48.520;11.228;2023-09-18T07:49:57;8.47;;;7.67;;
12719;SDS011;6424;48.520;11.228;2023-09-18T07:52:41;9.20;;;8.40;;
12719;SDS011;6424;48.520;11.228;2023-09-18T07:55:25;9.63;;;8.67;;
12719;SDS011;6424;48.520;11.228;2023-09-18T07:58:10;8.93;;;8.03;;
12719;SDS011;6424;48.520;11.228;2023-09-18T08:00:55;8.80;;;8.00;;
12719;SDS011;6424;48.520;11.228;2023-09-18T08:03:40;10.73;;;8.70;;
12719;SDS011;6424;48.520;11.228;2023-09-18T08:06:24;10.13;;;8.40;;
12719;SDS011;6424;48.520;11.228;2023-09-18T08:09:09;9.10;;;8.23;;
12719;SDS011;6424;48.520;11.228;2023-09-18T08:11:57;8.60;;;7.87;;
12719;SDS011;6424;48.520;11.228;2023-09-18T08:14:41;7.87;;;7.07;;
12719;SDS011;6424;48.520;11.228;2023-09-18T08:17:25;8.50;;;7.33;;
12719;SDS011;6424;48.520;11.228;2023-09-18T08:20:09;7.60;;;6.90;;
12719;SDS011;6424;48.520;11.228;2023-09-18T08:22:59;9.50;;;7.63;;
12719;SDS011;6424;48.520;11.228;2023-09-18T08:25:47;9.13;;;6.97;;
12719;SDS011;6424;48.520;11.228;2023-09-18T08:28:31;9.20;;;6.83;;
12719;SDS011;6424;48.520;11.228;2023-09-18T08:31:15;10.50;;;6.77;;
12719;SDS011;6424;48.520;11.228;2023-09-18T08:34:00;7.80;;;6.70;;
12719;SDS011;6424;48.520;11.228;2023-09-18T08:36:44;7.60;;;6.90;;
12719;SDS011;6424;48.520;11.228;2023-09-18T08:39:28;10.20;;;7.07;;
12719;SDS011;6424;48.520;11.228;2023-09-18T08:42:13;7.67;;;6.77;;
12719;SDS011;6424;48.520;11.228;2023-09-18T08:44:59;7.93;;;6.23;;
12719;SDS011;6424;48.520;11.228;2023-09-18T08:47:45;7.77;;;6.30;;
12719;SDS011;6424;48.520;11.228;2023-09-18T08:50:30;7.57;;;6.30;;
12719;SDS011;6424;48.520;11.228;2023-09-18T08:53:15;9.17;;;5.87;;
12719;SDS011;6424;48.520;11.228;2023-09-18T08:56:00;6.20;;;5.60;;
12719;SDS011;6424;48.520;11.228;2023-09-18T08:58:48;6.13;;;5.23;;
12719;SDS011;6424;48.520;11.228;2023-09-18T09:01:32;7.73;;;5.47;;
12719;SDS011;6424;48.520;11.228;2023-09-18T09:04:16;7.27;;;4.87;;
12719;SDS011;6424;48.520;11.228;2023-09-18T09:07:02;8.70;;;4.60;;
12719;SDS011;6424;48.520;11.228;2023-09-18T09:09:47;8.40;;;4.27;;
12719;SDS011;6424;48.520;11.228;2023-09-18T09:15:55;6.53;;;5.20;;
12719;SDS011;6424;48.520;11.228;2023-09-18T09:18:47;7.50;;;5.10;;
12719;SDS011;6424;48.520;11.228;2023-09-18T09:21:40;8.43;;;4.67;;
12719;SDS011;6424;48.520;11.228;2023-09-18T09:24:45;9.10;;;4.50;;
12719;SDS011;6424;48.520;11.228;2023-09-18T09:27:41;4.60;;;4.10;;
12719;SDS011;6424;48.520;11.228;2023-09-18T09:30:27;6.97;;;4.00;;
12719;SDS011;6424;48.520;11.228;2023-09-18T09:33:12;5.57;;;4.40;;
12719;SDS011;6424;48.520;11.228;2023-09-18T09:35:57;5.37;;;4.30;;
12719;SDS011;6424;48.520;11.228;2023-09-18T09:38:42;5.63;;;4.17;;
12719;SDS011;6424;48.520;11.228;2023-09-18T09:41:28;5.93;;;4.87;;
12719;SDS011;6424;48.520;11.228;2023-09-18T09:44:13;7.33;;;4.60;;
12719;SDS011;6424;48.520;11.228;2023-09-18T09:46:57;5.07;;;4.30;;
12719;SDS011;6424;48.520;11.228;2023-09-18T09:49:49;7.03;;;3.97;;
12719;SDS011;6424;48.520;11.228;2023-09-18T09:52:33;5.63;;;4.07;;
12719;SDS011;6424;48.520;11.228;2023-09-18T09:55:19;6.40;;;3.07;;
12719;SDS011;6424;48.520;11.228;2023-09-18T09:58:04;8.10;;;3.10;;
12719;SDS011;6424;48.520;11.228;2023-09-18T10:00:51;8.53;;;3.10;;
12719;SDS011;6424;48.520;11.228;2023-09-18T10:03:39;10.50;;;3.40;;
12719;SDS011;6424;48.520;11.228;2023-09-18T10:06:24;7.63;;;3.37;;
12719;SDS011;6424;48.520;11.228;2023-09-18T10:09:14;5.43;;;3.07;;
12719;SDS011;6424;48.520;11.228;2023-09-18T10:11:59;6.90;;;3.00;;
12719;SDS011;6424;48.520;11.228;2023-09-18T10:14:46;6.33;;;3.07;;
12719;SDS011;6424;48.520;11.228;2023-09-18T10:17:32;4.83;;;3.07;;
12719;SDS011;6424;48.520;11.228;2023-09-18T10:20:18;9.50;;;2.60;;
12719;SDS011;6424;48.520;11.228;2023-09-18T10:23:04;6.73;;;3.07;;
12719;SDS011;6424;48.520;11.228;2023-09-18T10:25:50;9.97;;;3.57;;
12719;SDS011;6424;48.520;11.228;2023-09-18T10:28:38;5.03;;;2.53;;
12719;SDS011;6424;48.520;11.228;2023-09-18T10:31:26;5.50;;;2.70;;
12719;SDS011;6424;48.520;11.228;2023-09-18T10:34:11;7.53;;;2.57;;
12719;SDS011;6424;48.520;11.228;2023-09-18T10:36:57;11.70;;;3.03;;
12719;SDS011;6424;48.520;11.228;2023-09-18T10:39:44;8.87;;;2.80;;
12719;SDS011;6424;48.520;11.228;2023-09-18T10:42:32;5.47;;;2.37;;
12719;SDS011;6424;48.520;11.228;2023-09-18T10:45:18;10.77;;;2.80;;
12719;SDS011;6424;48.520;11.228;2023-09-18T10:48:05;7.90;;;2.40;;
12719;SDS011;6424;48.520;11.228;2023-09-18T10:50:51;6.37;;;2.63;;
12719;SDS011;6424;48.520;11.228;2023-09-18T10:53:36;7.13;;;2.80;;
12719;SDS011;6424;48.520;11.228;2023-09-18T10:56:21;7.10;;;3.00;;
12719;SDS011;6424;48.520;11.228;2023-09-18T10:59:06;7.67;;;2.40;;
12719;SDS011;6424;48.520;11.228;2023-09-18T11:01:51;8.60;;;2.50;;
12719;SDS011;6424;48.520;11.228;2023-09-18T11:04:37;9.50;;;2.70;;
12719;SDS011;6424;48.520;11.228;2023-09-18T11:07:21;9.33;;;2.73;;
12719;SDS011;6424;48.520;11.228;2023-09-18T11:10:25;5.60;;;2.10;;
12719;SDS011;6424;48.520;11.228;2023-09-18T11:13:11;7.93;;;2.60;;
12719;SDS011;6424;48.520;11.228;2023-09-18T11:19:11;8.60;;;2.10;;
12719;SDS011;6424;48.520;11.228;2023-09-18T11:22:06;10.23;;;2.60;;
12719;SDS011;6424;48.520;11.228;2023-09-18T11:25:28;4.70;;;2.23;;
12719;SDS011;6424;48.520;11.228;2023-09-18T11:28:14;5.07;;;2.03;;
12719;SDS011;6424;48.520;11.228;2023-09-18T11:31:05;8.30;;;2.37;;
12719;SDS011;6424;48.520;11.228;2023-09-18T11:33:51;4.13;;;2.10;;
12719;SDS011;6424;48.520;11.228;2023-09-18T11:36:36;5.57;;;2.10;;
12719;SDS011;6424;48.520;11.228;2023-09-18T11:42:21;4.50;;;1.60;;
12719;SDS011;6424;48.520;11.228;2023-09-18T11:45:06;6.00;;;1.93;;
12719;SDS011;6424;48.520;11.228;2023-09-18T11:47:51;8.20;;;1.47;;
12719;SDS011;6424;48.520;11.228;2023-09-18T11:50:38;6.07;;;1.57;;
12719;SDS011;6424;48.520;11.228;2023-09-18T11:53:28;3.37;;;1.30;;
12719;SDS011;6424;48.520;11.228;2023-09-18T11:56:17;6.03;;;1.77;;
12719;SDS011;6424;48.520;11.228;2023-09-18T11:59:02;3.23;;;1.53;;
12719;SDS011;6424;48.520;11.228;2023-09-18T12:01:55;5.90;;;1.60;;
12719;SDS011;6424;48.520;11.228;2023-09-18T12:04:45;4.57;;;1.77;;
12719;SDS011;6424;48.520;11.228;2023-09-18T12:07:31;6.33;;;1.77;;
12719;SDS011;6424;48.520;11.228;2023-09-18T12:10:16;4.37;;;1.97;;
12719;SDS011;6424;48.520;11.228;2023-09-18T12:13:05;4.63;;;1.77;;
12719;SDS011;6424;48.520;11.228;2023-09-18T12:16:01;6.67;;;1.93;;
12719;SDS011;6424;48.520;11.228;2023-09-18T12:18:50;5.43;;;1.70;;
12719;SDS011;6424;48.520;11.228;2023-09-18T12:21:41;5.90;;;2.03;;
12719;SDS011;6424;48.520;11.228;2023-09-18T12:24:25;8.00;;;2.50;;
12719;SDS011;6424;48.520;11.228;2023-09-18T12:27:11;3.47;;;1.90;;
12719;SDS011;6424;48.520;11.228;2023-09-18T12:29:55;5.70;;;2.10;;
12719;SDS011;6424;48.520;11.228;2023-09-18T12:32:43;4.73;;;2.40;;
12719;SDS011;6424;48.520;11.228;2023-09-18T12:35:28;5.80;;;2.07;;
12719;SDS011;6424;48.520;11.228;2023-09-18T12:38:14;5.00;;;2.00;;
12719;SDS011;6424;48.520;11.228;2023-09-18T12:41:06;6.97;;;2.13;;
12719;SDS011;6424;48.520;11.228;2023-09-18T12:43:51;3.97;;;1.60;;
12719;SDS011;6424;48.520;11.228;2023-09-18T12:46:37;4.87;;;1.73;;
12719;SDS011;6424;48.520;11.228;2023-09-18T12:49:24;6.70;;;2.00;;
12719;SDS011;6424;48.520;11.228;2023-09-18T12:52:21;5.87;;;1.83;;
12719;SDS011;6424;48.520;11.228;2023-09-18T12:55:06;5.00;;;1.50;;
12719;SDS011;6424;48.520;11.228;2023-09-18T12:57:51;3.90;;;1.50;;
12719;SDS011;6424;48.520;11.228;2023-09-18T13:00:36;5.50;;;1.57;;
12719;SDS011;6424;48.520;11.228;2023-09-18T13:03:27;2.77;;;1.50;;
12719;SDS011;6424;48.520;11.228;2023-09-18T13:06:15;7.27;;;1.60;;
12719;SDS011;6424;48.520;11.228;2023-09-18T13:09:17;4.87;;;1.50;;
12719;SDS011;6424;48.520;11.228;2023-09-18T13:12:06;3.00;;;1.60;;
12719;SDS011;6424;48.520;11.228;2023-09-18T13:14:58;2.60;;;1.37;;
12719;SDS011;6424;48.520;11.228;2023-09-18T13:17:52;3.33;;;1.90;;
12719;SDS011;6424;48.520;11.228;2023-09-18T13:20:37;6.03;;;2.00;;
12719;SDS011;6424;48.520;11.228;2023-09-18T13:23:30;2.73;;;1.87;;
12719;SDS011;6424;48.520;11.228;2023-09-18T13:26:14;4.67;;;1.57;;
12719;SDS011;6424;48.520;11.228;2023-09-18T13:28:59;4.20;;;1.70;;
12719;SDS011;6424;48.520;11.228;2023-09-18T13:31:43;2.70;;;1.60;;
12719;SDS011;6424;48.520;11.228;2023-09-18T13:34:28;3.20;;;1.90;;
12719;SDS011;6424;48.520;11.228;2023-09-18T13:37:13;4.93;;;2.20;;
12719;SDS011;6424;48.520;11.228;2023-09-18T13:40:00;5.93;;;2.03;;
12719;SDS011;6424;48.520;11.228;2023-09-18T13:42:46;3.13;;;1.53;;
12719;SDS011;6424;48.520;11.228;2023-09-18T13:45:32;4.17;;;1.53;;
12719;SDS011;6424;48.520;11.228;2023-09-18T13:48:18;3.47;;;1.80;;
12719;SDS011;6424;48.520;11.228;2023-09-18T13:51:03;5.73;;;2.07;;
12719;SDS011;6424;48.520;11.228;2023-09-18T13:53:47;2.17;;;1.43;;
12719;SDS011;6424;48.520;11.228;2023-09-18T13:56:32;2.93;;;1.80;;
12719;SDS011;6424;48.520;11.228;2023-09-18T13:59:17;5.93;;;2.07;;
12719;SDS011;6424;48.520;11.228;2023-09-18T14:02:01;6.13;;;2.00;;
12719;SDS011;6424;48.520;11.228;2023-09-18T14:04:47;2.83;;;1.80;;
12719;SDS011;6424;48.520;11.228;2023-09-18T14:07:32;4.40;;;2.20;;
12719;SDS011;6424;48.520;11.228;2023-09-18T14:10:17;3.97;;;2.00;;
12719;SDS011;6424;48.520;11.228;2023-09-18T14:13:04;2.63;;;1.50;;
12719;SDS011;6424;48.520;11.228;2023-09-18T14:15:49;4.83;;;2.30;;
12719;SDS011;6424;48.520;11.228;2023-09-18T14:18:33;3.87;;;2.10;;
12719;SDS011;6424;48.520;11.228;2023-09-18T14:21:17;2.87;;;1.97;;
12719;SDS011;6424;48.520;11.228;2023-09-18T14:24:01;5.50;;;2.17;;
12719;SDS011;6424;48.520;11.228;2023-09-18T14:26:46;5.97;;;1.83;;
12719;SDS011;6424;48.520;11.228;2023-09-18T14:29:31;4.50;;;1.77;;
12719;SDS011;6424;48.520;11.228;2023-09-18T14:32:15;3.00;;;1.60;;
12719;SDS011;6424;48.520;11.228;2023-09-18T14:35:00;2.57;;;2.03;;
12719;SDS011;6424;48.520;11.228;2023-09-18T14:37:46;3.90;;;1.63;;
12719;SDS011;6424;48.520;11.228;2023-09-18T14:40:30;3.23;;;1.60;;
12719;SDS011;6424;48.520;11.228;2023-09-18T14:43:14;3.57;;;2.07;;
12719;SDS011;6424;48.520;11.228;2023-09-18T14:45:59;4.17;;;1.93;;
12719;SDS011;6424;48.520;11.228;2023-09-18T14:48:43;3.47;;;1.90;;
12719;SDS011;6424;48.520;11.228;2023-09-18T14:51:27;3.23;;;1.90;;
12719;SDS011;6424;48.520;11.228;2023-09-18T14:54:12;3.30;;;2.00;;
12719;SDS011;6424;48.520;11.228;2023-09-18T14:56:58;3.53;;;1.70;;
12719;SDS011;6424;48.520;11.228;2023-09-18T14:59:43;2.50;;;1.57;;
12719;SDS011;6424;48.520;11.228;2023-09-18T15:02:30;4.70;;;1.40;;
12719;SDS011;6424;48.520;11.228;2023-09-18T15:05:15;4.17;;;1.37;;
12719;SDS011;6424;48.520;11.228;2023-09-18T15:08:01;1.80;;;1.17;;
12719;SDS011;6424;48.520;11.228;2023-09-18T15:10:46;2.00;;;1.50;;
12719;SDS011;6424;48.520;11.228;2023-09-18T15:13:31;3.63;;;1.67;;
12719;SDS011;6424;48.520;11.228;2023-09-18T15:16:18;3.60;;;1.33;;
12719;SDS011;6424;48.520;11.228;2023-09-18T15:19:02;2.17;;;1.33;;
12719;SDS011;6424;48.520;11.228;2023-09-18T15:21:50;4.00;;;1.73;;
12719;SDS011;6424;48.520;11.228;2023-09-18T15:24:36;4.50;;;1.80;;
12719;SDS011;6424;48.520;11.228;2023-09-18T15:27:20;2.37;;;1.47;;
12719;SDS011;6424;48.520;11.228;2023-09-18T15:30:05;4.03;;;1.77;;
12719;SDS011;6424;48.520;11.228;2023-09-18T15:32:53;2.90;;;1.70;;
12719;SDS011;6424;48.520;11.228;2023-09-18T15:35:39;2.17;;;1.90;;
12719;SDS011;6424;48.520;11.228;2023-09-18T15:38:23;4.50;;;2.03;;
12719;SDS011;6424;48.520;11.228;2023-09-18T15:41:08;3.27;;;1.70;;
12719;SDS011;6424;48.520;11.228;2023-09-18T15:43:53;2.33;;;1.60;;
12719;SDS011;6424;48.520;11.228;2023-09-18T15:46:37;3.17;;;1.70;;
12719;SDS011;6424;48.520;11.228;2023-09-18T15:49:21;1.63;;;1.30;;
12719;SDS011;6424;48.520;11.228;2023-09-18T15:52:06;2.27;;;1.40;;
12719;SDS011;6424;48.520;11.228;2023-09-18T15:54:52;2.43;;;1.20;;
12719;SDS011;6424;48.520;11.228;2023-09-18T15:57:36;1.70;;;1.20;;
12719;SDS011;6424;48.520;11.228;2023-09-18T16:00:22;2.73;;;1.70;;
12719;SDS011;6424;48.520;11.228;2023-09-18T16:03:07;2.43;;;1.60;;
12719;SDS011;6424;48.520;11.228;2023-09-18T16:05:52;2.13;;;1.60;;
12719;SDS011;6424;48.520;11.228;2023-09-18T16:08:38;3.20;;;1.57;;
12719;SDS011;6424;48.520;11.228;2023-09-18T16:11:42;3.23;;;1.83;;
12719;SDS011;6424;48.520;11.228;2023-09-18T16:14:26;2.73;;;1.90;;
12719;SDS011;6424;48.520;11.228;2023-09-18T16:17:11;2.57;;;1.80;;
12719;SDS011;6424;48.520;11.228;2023-09-18T16:19:55;4.50;;;1.70;;
12719;SDS011;6424;48.520;11.228;2023-09-18T16:22:39;2.50;;;1.70;;
12719;SDS011;6424;48.520;11.228;2023-09-18T16:25:25;2.80;;;1.70;;
12719;SDS011;6424;48.520;11.228;2023-09-18T16:28:10;2.50;;;1.70;;
12719;SDS011;6424;48.520;11.228;2023-09-18T16:30:54;3.47;;;1.80;;
12719;SDS011;6424;48.520;11.228;2023-09-18T16:33:38;2.60;;;1.73;;
12719;SDS011;6424;48.520;11.228;2023-09-18T16:36:24;2.90;;;1.40;;
12719;SDS011;6424;48.520;11.228;2023-09-18T16:39:09;1.53;;;1.40;;
12719;SDS011;6424;48.520;11.228;2023-09-18T16:41:56;2.90;;;1.50;;
12719;SDS011;6424;48.520;11.228;2023-09-18T16:44:40;3.03;;;1.50;;
12719;SDS011;6424;48.520;11.228;2023-09-18T16:47:26;2.70;;;1.77;;
12719;SDS011;6424;48.520;11.228;2023-09-18T16:50:10;3.10;;;1.60;;